createdAt,value
2023-05-21T00:00:37.114Z,55.60
2023-05-21T00:03:07.615Z,55.08
2023-05-21T00:05:39.915Z,55.34
2023-05-21T00:08:12.569Z,55.59
2023-05-21T00:10:42.945Z,55.68
2023-05-21T00:13:13.962Z,55.63
2023-05-21T00:15:45.109Z,55.60
2023-05-21T00:18:15.539Z,55.59
2023-05-21T00:20:45.897Z,55.51
2023-05-21T00:23:16.445Z,55.96
2023-05-21T00:25:47.980Z,55.92
2023-05-21T00:28:19.582Z,55.61
2023-05-21T00:30:50.126Z,55.75
2023-05-21T00:33:20.511Z,55.81
2023-05-21T00:35:51.044Z,55.83
2023-05-21T00:38:21.515Z,55.96
2023-05-21T00:40:52.313Z,55.96
2023-05-21T00:43:22.913Z,55.32
2023-05-21T00:45:56.148Z,55.80
2023-05-21T00:48:26.901Z,55.69
2023-05-21T00:50:58.189Z,55.58
2023-05-21T00:53:29.901Z,55.81
2023-05-21T00:56:02.534Z,55.54
2023-05-21T00:58:35.867Z,55.72
2023-05-21T01:01:09.098Z,55.66
2023-05-21T01:03:40.812Z,55.53
2023-05-21T01:06:12.388Z,55.42
2023-05-21T01:08:45.822Z,55.76
2023-05-21T01:11:17.464Z,55.78
2023-05-21T01:13:50.269Z,55.89
2023-05-21T01:16:21.065Z,55.84
2023-05-21T01:18:51.534Z,55.72
2023-05-21T01:21:27.674Z,55.65
2023-05-21T01:23:58.889Z,55.77
2023-05-21T01:26:30.984Z,55.72
2023-05-21T01:29:01.596Z,55.62
2023-05-21T01:32:04.155Z,55.68
2023-05-21T01:34:59.584Z,55.39
2023-05-21T01:37:33.496Z,55.15
2023-05-21T01:40:18.683Z,55.34
2023-05-21T01:42:50.328Z,55.71
2023-05-21T01:45:23.837Z,55.49
2023-05-21T01:48:00.067Z,55.46
2023-05-21T01:50:32.488Z,55.91
2023-05-21T01:53:08.206Z,55.90
2023-05-21T01:55:43.521Z,55.94
2023-05-21T01:58:13.999Z,55.81
2023-05-21T02:00:44.821Z,55.27
2023-05-21T02:03:19.711Z,55.25
2023-05-21T02:05:50.231Z,55.40
2023-05-21T02:08:22.269Z,56.09
2023-05-21T02:10:55.313Z,55.74
2023-05-21T02:13:27.529Z,55.64
2023-05-21T02:15:58.653Z,55.88
2023-05-21T02:18:33.312Z,55.97
2023-05-21T02:21:03.993Z,55.46
2023-05-21T02:23:35.424Z,55.77
2023-05-21T02:26:06.558Z,56.07
2023-05-21T02:28:36.885Z,55.66
2023-05-21T02:31:07.232Z,56.15
2023-05-21T02:33:38.735Z,55.76
2023-05-21T02:36:15.809Z,55.62
2023-05-21T02:38:46.255Z,55.10
2023-05-21T02:41:16.805Z,55.77
2023-05-21T02:43:47.269Z,55.79
2023-05-21T02:46:18.465Z,55.39
2023-05-21T02:48:49.238Z,55.32
2023-05-21T02:51:20.282Z,55.47
2023-05-21T02:53:51.707Z,55.13
2023-05-21T02:56:22.632Z,55.03
2023-05-21T02:58:54.520Z,55.16
2023-05-21T03:01:25.128Z,55.20
2023-05-21T03:03:55.397Z,54.99
2023-05-21T03:06:26.413Z,55.37
2023-05-21T03:08:56.779Z,55.78
2023-05-21T03:11:27.233Z,55.89
2023-05-21T03:13:58.017Z,55.09
2023-05-21T03:16:28.575Z,55.42
2023-05-21T03:18:59.003Z,55.05
2023-05-21T03:21:32.504Z,55.16
2023-05-21T03:24:04.558Z,55.01
2023-05-21T03:26:35.170Z,55.43
2023-05-21T03:29:05.656Z,55.23
2023-05-21T03:31:38.645Z,54.45
2023-05-21T03:34:14.370Z,54.68
2023-05-21T03:36:45.108Z,54.82
2023-05-21T03:39:15.926Z,55.14
2023-05-21T03:41:46.443Z,54.89
2023-05-21T03:44:25.008Z,54.73
2023-05-21T03:47:00.236Z,55.12
2023-05-21T03:49:33.867Z,54.99
2023-05-21T03:52:04.298Z,54.75
2023-05-21T03:54:34.689Z,54.30
2023-05-21T03:57:11.793Z,53.68
2023-05-21T03:59:42.175Z,53.56
2023-05-21T04:02:12.540Z,53.78
2023-05-21T04:04:42.979Z,53.79
2023-05-21T04:07:17.042Z,53.63
2023-05-21T04:09:47.446Z,53.29
2023-05-21T04:12:18.438Z,53.16
2023-05-21T04:14:50.205Z,53.39
2023-05-21T04:17:21.691Z,54.24
2023-05-21T04:19:53.620Z,53.23
2023-05-21T04:22:25.812Z,53.47
2023-05-21T04:24:57.061Z,53.23
2023-05-21T04:27:32.258Z,53.44
2023-05-21T04:30:02.812Z,53.14
2023-05-21T04:32:37.357Z,53.19
2023-05-21T04:35:08.200Z,53.55
2023-05-21T04:37:38.704Z,53.58
2023-05-21T04:40:10.295Z,52.90
2023-05-21T04:42:41.567Z,52.79
2023-05-21T04:45:14.068Z,52.91
2023-05-21T04:47:47.147Z,53.03
2023-05-21T04:50:17.835Z,52.85
2023-05-21T04:52:48.284Z,52.76
2023-05-21T04:55:21.488Z,52.29
2023-05-21T04:57:52.256Z,51.91
2023-05-21T05:00:24.987Z,52.13
2023-05-21T05:02:55.464Z,51.95
2023-05-21T05:05:26.007Z,51.96
2023-05-21T05:07:56.325Z,51.73
2023-05-21T05:10:27.029Z,51.52
2023-05-21T05:12:58.461Z,50.21
2023-05-21T05:15:29.046Z,50.86
2023-05-21T05:18:00.533Z,50.58
2023-05-21T05:20:32.044Z,50.30
2023-05-21T05:23:02.792Z,51.16
2023-05-21T05:25:34.795Z,50.58
2023-05-21T05:28:05.768Z,50.39
2023-05-21T05:30:36.232Z,50.39
2023-05-21T05:33:18.024Z,51.01
2023-05-21T05:35:48.664Z,51.39
2023-05-21T05:38:19.532Z,51.42
2023-05-21T05:40:49.769Z,52.26
2023-05-21T05:43:20.203Z,51.61
2023-05-21T05:45:50.510Z,51.44
2023-05-21T05:48:22.012Z,51.03
2023-05-21T05:50:52.373Z,51.17
2023-05-21T05:53:23.024Z,50.77
2023-05-21T05:55:53.987Z,50.95
2023-05-21T05:58:24.379Z,50.03
2023-05-21T06:01:10.976Z,49.01
2023-05-21T06:03:43.259Z,49.45
2023-05-21T06:06:17.456Z,49.55
2023-05-21T06:08:48.752Z,50.03
2023-05-21T06:11:19.774Z,49.54
2023-05-21T06:13:51.590Z,48.83
2023-05-21T06:16:22.253Z,47.82
2023-05-21T06:28:09.297Z,48.28
2023-05-21T06:30:40.960Z,48.38
2023-05-21T06:33:11.780Z,47.93
2023-05-21T06:35:42.797Z,47.77
2023-05-21T06:38:14.314Z,46.39
2023-05-21T06:40:47.102Z,46.07
2023-05-21T06:43:25.371Z,47.59
2023-05-21T06:46:25.057Z,47.63
2023-05-21T06:48:55.700Z,47.57
2023-05-21T06:51:25.986Z,46.27
2023-05-21T06:53:56.442Z,46.96
2023-05-21T06:56:27.534Z,45.38
2023-05-21T06:58:58.840Z,45.40
2023-05-21T07:01:29.500Z,44.67
2023-05-21T07:04:00.043Z,45.83
2023-05-21T07:06:30.660Z,46.03
2023-05-21T07:09:01.372Z,45.93
2023-05-21T07:11:33.576Z,46.65
2023-05-21T07:14:09.408Z,46.99
2023-05-21T07:16:41.887Z,46.87
2023-05-21T07:19:12.329Z,46.87
2023-05-21T07:21:43.056Z,46.65
2023-05-21T07:24:14.343Z,46.57
2023-05-21T07:26:45.624Z,46.90
2023-05-21T07:29:16.453Z,47.24
2023-05-21T07:31:47.012Z,47.24
2023-05-21T07:34:17.381Z,47.49
2023-05-21T07:36:47.826Z,47.46
2023-05-21T07:39:19.432Z,47.31
2023-05-21T07:41:49.869Z,46.31
2023-05-21T07:44:20.281Z,47.07
2023-05-21T07:46:51.248Z,46.34
2023-05-21T07:49:21.846Z,45.59
2023-05-21T07:51:53.714Z,45.39
2023-05-21T07:54:24.188Z,46.82
2023-05-21T07:56:55.412Z,47.07
2023-05-21T07:59:48.834Z,47.34
2023-05-21T08:02:19.669Z,47.45
2023-05-21T08:04:50.434Z,46.95
2023-05-21T08:07:22.198Z,46.86
2023-05-21T08:09:52.624Z,47.11
2023-05-21T08:12:23.430Z,46.93
2023-05-21T08:14:53.933Z,47.35
2023-05-21T08:17:26.736Z,46.67
2023-05-21T08:19:57.709Z,47.67
2023-05-21T08:22:29.091Z,47.06
2023-05-21T08:24:59.574Z,47.17
2023-05-21T08:27:29.858Z,48.46
2023-05-21T08:30:01.190Z,48.64
2023-05-21T08:32:31.672Z,48.45
2023-05-21T08:35:03.091Z,48.10
2023-05-21T08:37:59.236Z,48.61
2023-05-21T08:40:46.994Z,48.92
2023-05-21T08:43:19.289Z,47.93
2023-05-21T08:45:59.483Z,47.74
2023-05-21T08:48:35.051Z,48.22
2023-05-21T08:51:05.851Z,47.76
2023-05-21T08:53:41.526Z,47.94
2023-05-21T08:56:15.564Z,47.53
2023-05-21T08:58:52.132Z,47.62
2023-05-21T09:01:26.555Z,48.69
2023-05-21T09:04:19.536Z,48.29
2023-05-21T09:06:54.781Z,48.13
2023-05-21T09:09:58.596Z,47.79
2023-05-21T09:12:31.107Z,48.09
2023-05-21T09:15:04.289Z,48.40
2023-05-21T09:17:38.933Z,48.27
2023-05-21T09:20:32.605Z,48.46
2023-05-21T09:23:14.621Z,47.94
2023-05-21T09:25:49.845Z,48.11
2023-05-21T09:28:28.143Z,47.85
2023-05-21T09:30:58.893Z,47.58
2023-05-21T09:33:34.189Z,47.61
2023-05-21T09:36:05.221Z,48.03
2023-05-21T09:38:37.470Z,47.99
2023-05-21T09:41:11.329Z,47.78
2023-05-21T09:43:47.407Z,47.51
2023-05-21T09:46:24.419Z,47.54
2023-05-21T09:48:54.874Z,47.50
2023-05-21T09:51:25.418Z,47.51
2023-05-21T09:54:03.642Z,47.66
2023-05-21T09:56:34.513Z,47.29
2023-05-21T09:59:09.261Z,46.61
2023-05-21T10:01:41.536Z,46.03
2023-05-21T10:04:12.637Z,45.92
2023-05-21T10:06:47.074Z,46.13
2023-05-21T10:09:21.432Z,45.91
2023-05-21T10:11:55.804Z,46.01
2023-05-21T10:14:29.795Z,46.22
2023-05-21T10:17:01.748Z,46.16
2023-05-21T10:19:35.721Z,45.84
2023-05-21T10:22:07.163Z,45.57
2023-05-21T10:24:38.526Z,45.09
2023-05-21T10:27:09.977Z,44.95
2023-05-21T10:29:41.229Z,44.91
2023-05-21T10:32:12.476Z,44.83
2023-05-21T10:34:43.398Z,45.06
2023-05-21T10:37:16.264Z,45.35
2023-05-21T10:39:48.365Z,44.18
2023-05-21T10:42:33.569Z,44.58
2023-05-21T10:45:27.083Z,43.54
2023-05-21T10:48:19.081Z,43.87
2023-05-21T10:51:11.626Z,44.09
2023-05-21T10:53:51.219Z,44.16
2023-05-21T10:57:07.471Z,44.95
2023-05-21T10:59:49.799Z,45.61
2023-05-21T11:02:23.378Z,45.49
2023-05-21T11:05:03.180Z,45.53
2023-05-21T11:08:02.953Z,45.59
2023-05-21T11:10:43.349Z,45.97
2023-05-21T11:13:19.051Z,45.82
2023-05-21T11:16:01.842Z,45.61
2023-05-21T11:18:52.237Z,45.82
2023-05-21T11:21:32.299Z,45.38
2023-05-21T11:24:08.831Z,45.46
2023-05-21T11:26:51.511Z,45.17
2023-05-21T11:29:22.559Z,45.48
2023-05-21T11:32:07.805Z,45.81
2023-05-21T11:34:43.222Z,45.72
2023-05-21T11:37:39.519Z,45.94
2023-05-21T11:40:21.777Z,46.28
2023-05-21T11:42:56.824Z,46.33
2023-05-21T11:45:33.778Z,46.66
2023-05-21T11:48:04.680Z,46.30
2023-05-21T11:50:36.587Z,46.44
2023-05-21T11:53:07.688Z,46.27
2023-05-21T11:55:45.775Z,46.34
2023-05-21T11:58:17.481Z,46.34
2023-05-21T12:00:48.048Z,45.43
2023-05-21T12:03:19.608Z,45.54
2023-05-21T12:05:51.140Z,45.41
2023-05-21T12:08:28.139Z,45.53
2023-05-21T12:11:05.818Z,45.63
2023-05-21T12:13:36.228Z,45.61
2023-05-21T12:16:07.888Z,45.68
2023-05-21T12:18:39.644Z,45.93
2023-05-21T12:21:12.509Z,45.80
2023-05-21T12:23:43.090Z,46.15
2023-05-21T12:26:14.815Z,46.87
2023-05-21T12:28:45.341Z,47.19
2023-05-21T12:31:19.207Z,47.47
2023-05-21T12:33:55.877Z,47.97
2023-05-21T12:36:33.211Z,48.26
2023-05-21T12:39:03.751Z,48.44
2023-05-21T12:41:34.203Z,48.43
2023-05-21T12:44:04.482Z,48.72
2023-05-21T12:46:36.954Z,48.96
2023-05-21T12:49:07.357Z,49.25
2023-05-21T12:51:42.853Z,49.57
2023-05-21T12:54:16.606Z,50.13
2023-05-21T12:56:51.010Z,51.26
2023-05-21T12:59:24.706Z,51.84
2023-05-21T13:01:55.822Z,52.19
2023-05-21T13:04:27.052Z,52.41
2023-05-21T13:06:57.546Z,52.74
2023-05-21T13:09:27.953Z,52.99
2023-05-21T13:11:58.448Z,52.63
2023-05-21T13:14:28.780Z,52.43
2023-05-21T13:16:59.084Z,52.63
2023-05-21T13:19:30.031Z,52.29
2023-05-21T13:22:00.364Z,52.44
2023-05-21T13:24:30.753Z,52.62
2023-05-21T13:27:00.995Z,52.58
2023-05-21T13:29:31.500Z,52.87
2023-05-21T13:32:01.905Z,52.94
2023-05-21T13:34:33.092Z,53.32
2023-05-21T13:37:03.324Z,53.36
2023-05-21T13:39:33.695Z,53.46
2023-05-21T13:42:04.740Z,53.19
2023-05-21T13:44:39.108Z,53.61
2023-05-21T13:47:11.468Z,53.85
2023-05-21T13:49:42.663Z,54.21
2023-05-21T13:52:12.695Z,54.77
2023-05-21T13:54:43.655Z,55.02
2023-05-21T13:57:14.185Z,54.82
2023-05-21T13:59:44.649Z,54.83
2023-05-21T14:02:16.565Z,55.00
2023-05-21T14:04:46.835Z,55.33
2023-05-21T14:07:17.426Z,55.40
2023-05-21T14:09:50.149Z,56.23
2023-05-21T14:12:21.470Z,56.63
2023-05-21T14:14:52.240Z,56.88
2023-05-21T14:17:22.931Z,56.54
2023-05-21T14:19:53.378Z,56.30
2023-05-21T14:22:24.109Z,56.46
2023-05-21T14:24:55.049Z,56.60
2023-05-21T14:27:25.310Z,56.39
2023-05-21T14:29:55.848Z,56.48
2023-05-21T14:32:26.311Z,56.44
2023-05-21T14:34:56.964Z,56.49
2023-05-21T14:37:27.314Z,56.42
2023-05-21T14:39:57.761Z,56.41
2023-05-21T14:42:28.127Z,56.05
2023-05-21T14:44:58.955Z,56.00
2023-05-21T14:47:29.596Z,56.02
2023-05-21T14:50:00.286Z,56.05
2023-05-21T14:52:30.747Z,57.07
2023-05-21T14:55:24.808Z,56.65
2023-05-21T14:57:55.108Z,56.58
2023-05-21T15:00:25.610Z,56.55
2023-05-21T15:02:57.334Z,56.76
2023-05-21T15:05:30.233Z,56.63
2023-05-21T15:08:00.992Z,56.72
2023-05-21T15:10:31.587Z,56.73
2023-05-21T15:13:01.823Z,57.07
2023-05-21T15:15:32.142Z,57.42
2023-05-21T15:18:02.646Z,57.44
2023-05-21T15:20:33.133Z,57.57
2023-05-21T15:25:37.071Z,57.54
2023-05-21T15:28:07.521Z,57.58
2023-05-21T15:30:37.892Z,57.90
2023-05-21T15:33:10.288Z,58.05
2023-05-21T15:35:41.089Z,57.64
2023-05-21T15:38:11.755Z,57.66
2023-05-21T15:40:45.593Z,57.23
2023-05-21T15:43:15.959Z,57.46
2023-05-21T15:45:46.270Z,57.17
2023-05-21T15:48:17.105Z,57.25
2023-05-21T15:50:47.433Z,57.03
2023-05-21T15:53:17.933Z,56.96
2023-05-21T15:55:48.458Z,57.08
2023-05-21T15:58:19.244Z,57.05
2023-05-21T16:00:49.661Z,57.00
2023-05-21T16:03:20.158Z,56.94
2023-05-21T16:05:50.540Z,56.99
2023-05-21T16:08:20.863Z,56.98
2023-05-21T16:10:51.087Z,57.03
2023-05-21T16:13:21.404Z,57.05
2023-05-21T16:15:51.763Z,57.14
2023-05-21T16:18:22.163Z,56.90
2023-05-21T16:20:52.452Z,57.05
2023-05-21T16:23:22.795Z,57.02
2023-05-21T16:25:53.467Z,57.09
2023-05-21T16:28:27.364Z,57.26
2023-05-21T16:30:57.682Z,57.12
2023-05-21T16:33:28.299Z,57.05
2023-05-21T16:35:59.076Z,57.13
2023-05-21T16:38:29.278Z,57.23
2023-05-21T16:40:59.845Z,57.27
2023-05-21T16:43:30.283Z,57.34
2023-05-21T16:46:00.670Z,57.33
2023-05-21T16:48:31.007Z,57.36
2023-05-21T16:51:02.097Z,57.44
2023-05-21T16:53:32.726Z,57.36
2023-05-21T16:56:03.170Z,57.44
2023-05-21T16:58:35.553Z,57.36
2023-05-21T17:01:06.165Z,57.71
2023-05-21T17:03:36.689Z,57.63
2023-05-21T17:06:07.396Z,57.57
2023-05-21T17:08:38.768Z,57.79
2023-05-21T17:11:09.716Z,57.71
2023-05-21T17:13:40.131Z,57.98
2023-05-21T17:16:10.624Z,58.13
2023-05-21T17:18:41.012Z,58.41
2023-05-21T17:21:12.399Z,58.38
2023-05-21T17:23:45.194Z,58.48
2023-05-21T17:26:16.387Z,58.42
2023-05-21T17:28:46.381Z,58.49
2023-05-21T17:31:16.981Z,58.73
2023-05-21T17:33:47.422Z,58.67
2023-05-21T17:36:18.649Z,58.60
2023-05-21T17:38:49.034Z,58.58
2023-05-21T17:41:21.449Z,58.63
2023-05-21T17:43:51.688Z,58.55
2023-05-21T17:46:22.753Z,58.75
2023-05-21T17:48:53.274Z,58.62
2023-05-21T17:51:23.703Z,58.76
2023-05-21T17:53:54.409Z,58.73
2023-05-21T17:56:25.390Z,58.91
2023-05-21T17:58:56.587Z,58.73
2023-05-21T18:01:27.114Z,58.96
2023-05-21T18:03:57.513Z,59.17
2023-05-21T18:06:28.025Z,59.27
2023-05-21T18:08:58.417Z,59.27
2023-05-21T18:11:28.957Z,59.26
2023-05-21T18:13:59.229Z,59.08
2023-05-21T18:16:32.616Z,59.24
2023-05-21T18:19:22.840Z,59.30
2023-05-21T18:21:53.427Z,59.46
2023-05-21T18:24:23.770Z,59.48
2023-05-21T18:26:54.033Z,59.44
2023-05-21T18:29:24.421Z,59.82
2023-05-21T18:31:54.864Z,59.68
2023-05-21T18:34:25.341Z,59.82
2023-05-21T18:36:56.925Z,59.76
2023-05-21T18:39:27.612Z,59.70
2023-05-21T18:42:11.965Z,59.73
2023-05-21T18:44:43.577Z,59.83
2023-05-21T18:47:15.139Z,59.64
2023-05-21T18:49:45.600Z,59.93
2023-05-21T18:52:17.797Z,59.90
2023-05-21T18:54:48.396Z,59.93
2023-05-21T18:57:18.694Z,59.83
2023-05-21T18:59:49.041Z,60.06
2023-05-21T19:02:19.699Z,60.21
2023-05-21T19:04:51.799Z,60.10
2023-05-21T19:07:22.420Z,60.25
2023-05-21T19:09:52.885Z,60.35
2023-05-21T19:12:22.962Z,60.35
2023-05-21T19:14:53.537Z,60.42
2023-05-21T19:17:24.338Z,60.57
2023-05-21T19:20:04.102Z,60.63
2023-05-21T19:22:34.475Z,60.40
2023-05-21T19:25:04.839Z,60.60
2023-05-21T19:27:35.308Z,60.84
2023-05-21T19:30:05.693Z,60.97
2023-05-21T19:32:36.669Z,60.95
2023-05-21T19:35:09.964Z,61.20
2023-05-21T19:37:40.556Z,61.34
2023-05-21T19:40:11.568Z,61.24
2023-05-21T19:42:42.513Z,61.42
2023-05-21T19:45:13.986Z,61.25
2023-05-21T19:47:44.594Z,61.20
2023-05-21T19:50:15.224Z,61.17
2023-05-21T19:52:46.791Z,61.27
2023-05-21T19:55:22.465Z,61.31
2023-05-21T19:57:53.102Z,61.25
2023-05-21T20:00:23.929Z,61.46
2023-05-21T20:02:56.340Z,61.26
2023-05-21T20:05:26.644Z,61.32
2023-05-21T20:07:57.187Z,61.27
2023-05-21T20:10:27.543Z,61.31
2023-05-21T20:12:58.302Z,61.40
2023-05-21T20:15:28.597Z,61.44
2023-05-21T20:18:01.508Z,61.45
2023-05-21T20:20:32.057Z,61.34
2023-05-21T20:23:05.656Z,61.40
2023-05-21T20:25:36.258Z,61.36
2023-05-21T20:28:07.728Z,61.24
2023-05-21T20:30:53.885Z,61.08
2023-05-21T20:33:25.104Z,60.92
2023-05-21T20:35:55.574Z,60.62
2023-05-21T20:38:28.563Z,60.39
2023-05-21T20:40:58.848Z,60.45
2023-05-21T20:43:29.437Z,60.34
2023-05-21T20:46:02.033Z,60.41
2023-05-21T20:48:34.452Z,60.13
2023-05-21T20:51:07.023Z,60.41
2023-05-21T20:53:37.390Z,60.18
2023-05-21T20:56:10.618Z,60.09
2023-05-21T20:58:42.270Z,59.23
2023-05-21T21:01:13.045Z,58.95
2023-05-21T21:03:46.226Z,58.46
2023-05-21T21:06:17.689Z,57.83
2023-05-21T21:08:48.580Z,58.06
2023-05-21T21:11:19.252Z,57.50
2023-05-21T21:13:50.984Z,57.32
2023-05-21T21:16:21.344Z,57.24
2023-05-21T21:18:51.931Z,57.33
2023-05-21T21:21:22.926Z,56.94
2023-05-21T21:23:53.371Z,56.98
2023-05-21T21:26:24.482Z,56.92
2023-05-21T21:28:55.231Z,57.73
2023-05-21T21:31:26.820Z,57.11
2023-05-21T21:33:57.302Z,56.93
2023-05-21T21:36:27.481Z,56.50
2023-05-21T21:38:58.520Z,56.47
2023-05-21T21:41:28.913Z,56.36
2023-05-21T21:43:59.330Z,56.75
2023-05-21T21:46:29.876Z,56.84
2023-05-21T21:49:00.356Z,56.65
2023-05-21T21:51:30.642Z,56.48
2023-05-21T21:54:00.986Z,56.32
2023-05-21T21:56:32.296Z,56.47
2023-05-21T21:59:02.962Z,56.50
2023-05-21T22:01:33.945Z,56.23
2023-05-21T22:04:04.112Z,56.30
2023-05-21T22:06:34.378Z,56.67
2023-05-21T22:09:04.785Z,56.99
2023-05-21T22:11:35.554Z,56.48
2023-05-21T22:14:06.762Z,56.08
2023-05-21T22:16:37.118Z,56.31
2023-05-21T22:19:07.534Z,56.13
2023-05-21T22:21:38.516Z,56.43
2023-05-21T22:24:14.925Z,56.55
2023-05-21T22:26:54.920Z,57.03
2023-05-21T22:29:25.512Z,56.87
2023-05-21T22:31:55.909Z,56.79
2023-05-21T22:34:27.647Z,56.93
2023-05-21T22:36:58.107Z,56.59
2023-05-21T22:39:28.468Z,56.67
2023-05-21T22:41:58.978Z,56.72
2023-05-21T22:44:29.373Z,56.60
2023-05-21T22:47:02.623Z,56.97
2023-05-21T22:49:35.067Z,56.52
2023-05-21T22:52:07.602Z,56.54
2023-05-21T22:55:59.738Z,57.40
2023-05-21T22:58:31.322Z,56.93
2023-05-21T23:01:01.677Z,57.05
2023-05-21T23:03:31.937Z,57.00
2023-05-21T23:06:02.473Z,57.01
2023-05-21T23:08:32.899Z,57.26
2023-05-21T23:11:04.021Z,57.20
2023-05-21T23:13:34.246Z,57.34
2023-05-21T23:16:04.679Z,57.13
2023-05-21T23:18:35.295Z,57.26
2023-05-21T23:21:05.738Z,57.15
2023-05-21T23:23:36.089Z,56.70
2023-05-21T23:26:07.047Z,56.84
2023-05-21T23:28:39.610Z,56.72
2023-05-21T23:31:10.561Z,56.81
2023-05-21T23:33:41.018Z,56.79
2023-05-21T23:36:11.639Z,56.68
2023-05-21T23:38:41.975Z,56.62
2023-05-21T23:41:12.923Z,57.03
2023-05-21T23:43:43.584Z,57.06
2023-05-21T23:46:14.211Z,56.92
2023-05-21T23:48:44.622Z,57.09
2023-05-21T23:51:15.628Z,57.03
2023-05-21T23:53:45.961Z,57.28
2023-05-21T23:56:16.390Z,56.92
2023-05-21T23:58:46.724Z,56.92
